sensor_id;sensor_type;location;lat;lon;timestamp;temperature;humidity
29363;DHT22;16349;53.672;10.014;2022-08-25T00:01:54;19.60;99.90
29363;DHT22;16349;53.672;10.014;2022-08-25T00:04:24;19.70;99.90
29363;DHT22;16349;53.672;10.014;2022-08-25T00:06:52;19.70;99.90
29363;DHT22;16349;53.672;10.014;2022-08-25T00:09:22;19.70;99.90
29363;DHT22;16349;53.672;10.014;2022-08-25T00:11:50;19.70;99.90
29363;DHT22;16349;53.672;10.014;2022-08-25T00:14:19;19.70;99.90
29363;DHT22;16349;53.672;10.014;2022-08-25T00:16:47;19.70;99.90
29363;DHT22;16349;53.672;10.014;2022-08-25T00:19:17;19.70;99.90
29363;DHT22;16349;53.672;10.014;2022-08-25T00:21:46;19.70;99.90
29363;DHT22;16349;53.672;10.014;2022-08-25T00:24:15;19.70;99.90
29363;DHT22;16349;53.672;10.014;2022-08-25T00:26:45;19.60;99.90
29363;DHT22;16349;53.672;10.014;2022-08-25T00:29:13;19.60;99.90
29363;DHT22;16349;53.672;10.014;2022-08-25T00:31:41;19.60;99.90
29363;DHT22;16349;53.672;10.014;2022-08-25T00:34:11;19.50;99.90
29363;DHT22;16349;53.672;10.014;2022-08-25T00:36:39;19.50;99.90
29363;DHT22;16349;53.672;10.014;2022-08-25T00:39:09;19.60;99.90
29363;DHT22;16349;53.672;10.014;2022-08-25T00:41:37;19.50;99.90
29363;DHT22;16349;53.672;10.014;2022-08-25T00:44:07;19.40;99.90
29363;DHT22;16349;53.672;10.014;2022-08-25T00:46:37;19.40;99.90
29363;DHT22;16349;53.672;10.014;2022-08-25T00:49:07;19.50;99.90
29363;DHT22;16349;53.672;10.014;2022-08-25T00:51:39;19.40;99.90
29363;DHT22;16349;53.672;10.014;2022-08-25T00:54:13;19.40;99.90
29363;DHT22;16349;53.672;10.014;2022-08-25T00:56:42;19.40;99.90
29363;DHT22;16349;53.672;10.014;2022-08-25T00:59:09;19.30;99.90
29363;DHT22;16349;53.672;10.014;2022-08-25T01:01:37;19.30;99.90
29363;DHT22;16349;53.672;10.014;2022-08-25T01:04:04;19.30;99.90
29363;DHT22;16349;53.672;10.014;2022-08-25T01:06:33;19.30;99.90
29363;DHT22;16349;53.672;10.014;2022-08-25T01:09:02;19.30;99.90
29363;DHT22;16349;53.672;10.014;2022-08-25T01:11:30;19.30;99.90
29363;DHT22;16349;53.672;10.014;2022-08-25T01:13:58;19.30;99.90
29363;DHT22;16349;53.672;10.014;2022-08-25T01:16:27;19.30;99.90
29363;DHT22;16349;53.672;10.014;2022-08-25T01:18:56;19.20;99.90
29363;DHT22;16349;53.672;10.014;2022-08-25T01:21:28;19.30;99.90
29363;DHT22;16349;53.672;10.014;2022-08-25T01:23:57;19.20;99.90
29363;DHT22;16349;53.672;10.014;2022-08-25T01:26:27;19.30;99.90
29363;DHT22;16349;53.672;10.014;2022-08-25T01:28:56;19.20;99.90
29363;DHT22;16349;53.672;10.014;2022-08-25T01:31:41;19.20;99.90
29363;DHT22;16349;53.672;10.014;2022-08-25T01:34:10;19.20;99.90
29363;DHT22;16349;53.672;10.014;2022-08-25T01:36:40;19.20;99.90
29363;DHT22;16349;53.672;10.014;2022-08-25T01:39:08;19.10;99.90
29363;DHT22;16349;53.672;10.014;2022-08-25T01:41:41;19.10;99.90
29363;DHT22;16349;53.672;10.014;2022-08-25T01:44:11;19.10;99.90
29363;DHT22;16349;53.672;10.014;2022-08-25T01:46:38;19.10;99.90
29363;DHT22;16349;53.672;10.014;2022-08-25T01:49:06;19.00;99.90
29363;DHT22;16349;53.672;10.014;2022-08-25T01:51:37;19.00;99.90
29363;DHT22;16349;53.672;10.014;2022-08-25T01:54:06;19.00;99.90
29363;DHT22;16349;53.672;10.014;2022-08-25T01:56:32;19.00;99.90
29363;DHT22;16349;53.672;10.014;2022-08-25T01:58:59;19.00;99.90
29363;DHT22;16349;53.672;10.014;2022-08-25T02:01:27;19.00;99.90
29363;DHT22;16349;53.672;10.014;2022-08-25T02:03:55;19.00;99.90
29363;DHT22;16349;53.672;10.014;2022-08-25T02:06:25;18.90;99.90
29363;DHT22;16349;53.672;10.014;2022-08-25T02:08:55;18.90;99.90
29363;DHT22;16349;53.672;10.014;2022-08-25T02:11:23;18.90;99.90
29363;DHT22;16349;53.672;10.014;2022-08-25T02:13:50;18.80;99.90
29363;DHT22;16349;53.672;10.014;2022-08-25T02:16:21;18.70;99.90
29363;DHT22;16349;53.672;10.014;2022-08-25T02:18:48;18.70;99.90
29363;DHT22;16349;53.672;10.014;2022-08-25T02:21:16;18.70;99.90
29363;DHT22;16349;53.672;10.014;2022-08-25T02:23:43;18.70;99.90
29363;DHT22;16349;53.672;10.014;2022-08-25T02:26:10;18.60;99.90
29363;DHT22;16349;53.672;10.014;2022-08-25T02:28:45;18.60;99.90
29363;DHT22;16349;53.672;10.014;2022-08-25T02:31:13;18.60;99.90
29363;DHT22;16349;53.672;10.014;2022-08-25T02:33:43;18.60;99.90
29363;DHT22;16349;53.672;10.014;2022-08-25T02:36:10;18.60;99.90
29363;DHT22;16349;53.672;10.014;2022-08-25T02:38:38;18.60;99.90
29363;DHT22;16349;53.672;10.014;2022-08-25T02:41:09;18.50;99.90
29363;DHT22;16349;53.672;10.014;2022-08-25T02:43:38;18.50;99.90
29363;DHT22;16349;53.672;10.014;2022-08-25T02:46:08;18.50;99.90
29363;DHT22;16349;53.672;10.014;2022-08-25T02:48:36;18.40;99.90
29363;DHT22;16349;53.672;10.014;2022-08-25T02:51:04;18.40;99.90
29363;DHT22;16349;53.672;10.014;2022-08-25T02:53:32;18.30;99.90
29363;DHT22;16349;53.672;10.014;2022-08-25T02:55:59;18.30;99.90
29363;DHT22;16349;53.672;10.014;2022-08-25T02:58:27;18.30;99.90
29363;DHT22;16349;53.672;10.014;2022-08-25T03:00:54;18.30;99.90
29363;DHT22;16349;53.672;10.014;2022-08-25T03:03:22;18.30;99.90
29363;DHT22;16349;53.672;10.014;2022-08-25T03:05:49;18.30;99.90
29363;DHT22;16349;53.672;10.014;2022-08-25T03:08:16;18.30;99.90
29363;DHT22;16349;53.672;10.014;2022-08-25T03:10:43;18.30;99.90
29363;DHT22;16349;53.672;10.014;2022-08-25T03:13:10;18.30;99.90
29363;DHT22;16349;53.672;10.014;2022-08-25T03:15:38;18.20;99.90
29363;DHT22;16349;53.672;10.014;2022-08-25T03:18:06;18.20;99.90
29363;DHT22;16349;53.672;10.014;2022-08-25T03:20:35;18.20;99.90
29363;DHT22;16349;53.672;10.014;2022-08-25T03:23:03;18.20;99.90
29363;DHT22;16349;53.672;10.014;2022-08-25T03:25:30;18.10;99.90
29363;DHT22;16349;53.672;10.014;2022-08-25T03:28:15;18.20;99.90
29363;DHT22;16349;53.672;10.014;2022-08-25T03:30:42;18.20;99.90
29363;DHT22;16349;53.672;10.014;2022-08-25T03:33:10;18.20;99.90
29363;DHT22;16349;53.672;10.014;2022-08-25T03:35:38;18.20;99.90
29363;DHT22;16349;53.672;10.014;2022-08-25T03:38:05;18.10;99.90
29363;DHT22;16349;53.672;10.014;2022-08-25T03:40:32;18.10;99.90
29363;DHT22;16349;53.672;10.014;2022-08-25T03:42:59;18.10;99.90
29363;DHT22;16349;53.672;10.014;2022-08-25T03:45:25;18.00;99.90
29363;DHT22;16349;53.672;10.014;2022-08-25T03:47:52;18.00;99.90
29363;DHT22;16349;53.672;10.014;2022-08-25T03:50:21;18.00;99.90
29363;DHT22;16349;53.672;10.014;2022-08-25T03:52:52;18.00;99.90
29363;DHT22;16349;53.672;10.014;2022-08-25T03:55:21;18.00;99.90
29363;DHT22;16349;53.672;10.014;2022-08-25T03:57:48;18.00;99.90
29363;DHT22;16349;53.672;10.014;2022-08-25T04:00:15;18.00;99.90
29363;DHT22;16349;53.672;10.014;2022-08-25T04:02:42;17.90;99.90
29363;DHT22;16349;53.672;10.014;2022-08-25T04:05:09;17.90;99.90
29363;DHT22;16349;53.672;10.014;2022-08-25T04:07:36;17.90;99.90
29363;DHT22;16349;53.672;10.014;2022-08-25T04:10:06;17.80;99.90
29363;DHT22;16349;53.672;10.014;2022-08-25T04:12:35;17.80;99.90
29363;DHT22;16349;53.672;10.014;2022-08-25T04:15:03;17.80;99.90
29363;DHT22;16349;53.672;10.014;2022-08-25T04:17:29;17.80;99.90
29363;DHT22;16349;53.672;10.014;2022-08-25T04:19:57;17.80;99.90
29363;DHT22;16349;53.672;10.014;2022-08-25T04:22:23;17.80;99.90
29363;DHT22;16349;53.672;10.014;2022-08-25T04:24:50;17.90;99.90
29363;DHT22;16349;53.672;10.014;2022-08-25T04:27:18;17.90;99.90
29363;DHT22;16349;53.672;10.014;2022-08-25T04:29:45;17.90;99.90
29363;DHT22;16349;53.672;10.014;2022-08-25T04:32:12;17.90;99.90
29363;DHT22;16349;53.672;10.014;2022-08-25T04:34:39;17.90;99.90
29363;DHT22;16349;53.672;10.014;2022-08-25T04:37:07;17.90;99.90
29363;DHT22;16349;53.672;10.014;2022-08-25T04:39:35;17.90;99.90
29363;DHT22;16349;53.672;10.014;2022-08-25T04:42:02;17.80;99.90
29363;DHT22;16349;53.672;10.014;2022-08-25T04:44:30;17.80;99.90
29363;DHT22;16349;53.672;10.014;2022-08-25T04:46:57;17.80;99.90
29363;DHT22;16349;53.672;10.014;2022-08-25T04:49:24;17.70;99.90
29363;DHT22;16349;53.672;10.014;2022-08-25T04:51:50;17.70;99.90
29363;DHT22;16349;53.672;10.014;2022-08-25T04:54:17;17.70;99.90
29363;DHT22;16349;53.672;10.014;2022-08-25T04:56:47;17.70;99.90
29363;DHT22;16349;53.672;10.014;2022-08-25T04:59:16;17.70;99.90
29363;DHT22;16349;53.672;10.014;2022-08-25T05:01:45;17.70;99.90
29363;DHT22;16349;53.672;10.014;2022-08-25T05:04:14;17.80;99.90
29363;DHT22;16349;53.672;10.014;2022-08-25T05:06:42;17.80;99.90
29363;DHT22;16349;53.672;10.014;2022-08-25T05:09:09;17.80;99.90
29363;DHT22;16349;53.672;10.014;2022-08-25T05:11:36;17.80;99.90
29363;DHT22;16349;53.672;10.014;2022-08-25T05:14:03;17.80;99.90
29363;DHT22;16349;53.672;10.014;2022-08-25T05:16:36;17.80;99.90
29363;DHT22;16349;53.672;10.014;2022-08-25T05:19:05;17.80;99.90
29363;DHT22;16349;53.672;10.014;2022-08-25T05:21:32;17.80;99.90
29363;DHT22;16349;53.672;10.014;2022-08-25T05:24:00;17.80;99.90
29363;DHT22;16349;53.672;10.014;2022-08-25T05:26:30;17.80;99.90
29363;DHT22;16349;53.672;10.014;2022-08-25T05:28:59;17.80;99.90
29363;DHT22;16349;53.672;10.014;2022-08-25T05:31:27;17.80;99.90
29363;DHT22;16349;53.672;10.014;2022-08-25T05:33:55;17.80;99.90
29363;DHT22;16349;53.672;10.014;2022-08-25T05:36:25;17.70;99.90
29363;DHT22;16349;53.672;10.014;2022-08-25T05:38:53;17.80;99.90
29363;DHT22;16349;53.672;10.014;2022-08-25T05:41:23;17.80;99.90
29363;DHT22;16349;53.672;10.014;2022-08-25T05:43:50;17.80;99.90
29363;DHT22;16349;53.672;10.014;2022-08-25T05:46:18;17.90;99.90
29363;DHT22;16349;53.672;10.014;2022-08-25T05:48:47;17.90;99.90
29363;DHT22;16349;53.672;10.014;2022-08-25T05:51:14;17.90;99.90
29363;DHT22;16349;53.672;10.014;2022-08-25T05:53:46;17.90;99.90
29363;DHT22;16349;53.672;10.014;2022-08-25T05:56:13;17.90;99.90
29363;DHT22;16349;53.672;10.014;2022-08-25T05:58:41;17.90;99.90
29363;DHT22;16349;53.672;10.014;2022-08-25T06:01:08;18.00;99.90
29363;DHT22;16349;53.672;10.014;2022-08-25T06:03:53;18.00;99.90
29363;DHT22;16349;53.672;10.014;2022-08-25T06:06:20;18.00;99.90
29363;DHT22;16349;53.672;10.014;2022-08-25T06:08:49;18.00;99.90
29363;DHT22;16349;53.672;10.014;2022-08-25T06:11:17;18.10;99.90
29363;DHT22;16349;53.672;10.014;2022-08-25T06:13:44;18.10;99.90
29363;DHT22;16349;53.672;10.014;2022-08-25T06:16:11;18.10;99.90
29363;DHT22;16349;53.672;10.014;2022-08-25T06:18:38;18.10;99.90
29363;DHT22;16349;53.672;10.014;2022-08-25T06:21:09;18.10;99.90
29363;DHT22;16349;53.672;10.014;2022-08-25T06:23:37;18.10;99.90
29363;DHT22;16349;53.672;10.014;2022-08-25T06:26:08;18.20;99.90
29363;DHT22;16349;53.672;10.014;2022-08-25T06:28:35;18.30;99.90
29363;DHT22;16349;53.672;10.014;2022-08-25T06:31:02;18.30;99.90
29363;DHT22;16349;53.672;10.014;2022-08-25T06:33:29;18.40;99.90
29363;DHT22;16349;53.672;10.014;2022-08-25T06:35:57;18.50;99.90
29363;DHT22;16349;53.672;10.014;2022-08-25T06:38:24;18.50;99.90
29363;DHT22;16349;53.672;10.014;2022-08-25T06:40:51;18.50;99.90
29363;DHT22;16349;53.672;10.014;2022-08-25T06:43:19;18.60;99.90
29363;DHT22;16349;53.672;10.014;2022-08-25T06:45:46;18.60;99.90
29363;DHT22;16349;53.672;10.014;2022-08-25T06:48:14;18.70;99.90
29363;DHT22;16349;53.672;10.014;2022-08-25T06:50:42;18.70;99.90
29363;DHT22;16349;53.672;10.014;2022-08-25T06:53:09;18.70;99.90
29363;DHT22;16349;53.672;10.014;2022-08-25T06:55:36;18.80;99.90
29363;DHT22;16349;53.672;10.014;2022-08-25T06:58:03;18.90;99.90
29363;DHT22;16349;53.672;10.014;2022-08-25T07:00:32;19.00;99.90
29363;DHT22;16349;53.672;10.014;2022-08-25T07:02:58;19.00;99.90
29363;DHT22;16349;53.672;10.014;2022-08-25T07:05:26;19.00;99.90
29363;DHT22;16349;53.672;10.014;2022-08-25T07:07:53;19.00;99.90
29363;DHT22;16349;53.672;10.014;2022-08-25T07:10:21;19.00;99.90
29363;DHT22;16349;53.672;10.014;2022-08-25T07:12:47;19.00;99.90
29363;DHT22;16349;53.672;10.014;2022-08-25T07:15:15;19.00;99.90
29363;DHT22;16349;53.672;10.014;2022-08-25T07:17:43;19.10;99.90
29363;DHT22;16349;53.672;10.014;2022-08-25T07:20:11;19.10;99.90
29363;DHT22;16349;53.672;10.014;2022-08-25T07:22:38;19.10;99.90
29363;DHT22;16349;53.672;10.014;2022-08-25T07:25:06;19.10;99.90
29363;DHT22;16349;53.672;10.014;2022-08-25T07:27:33;19.10;99.90
29363;DHT22;16349;53.672;10.014;2022-08-25T07:30:00;19.10;99.90
29363;DHT22;16349;53.672;10.014;2022-08-25T07:32:27;19.10;99.90
29363;DHT22;16349;53.672;10.014;2022-08-25T07:34:55;19.20;99.90
29363;DHT22;16349;53.672;10.014;2022-08-25T07:37:40;19.20;99.90
29363;DHT22;16349;53.672;10.014;2022-08-25T07:40:09;19.20;99.90
29363;DHT22;16349;53.672;10.014;2022-08-25T07:42:35;19.20;99.90
29363;DHT22;16349;53.672;10.014;2022-08-25T07:45:03;19.20;99.90
29363;DHT22;16349;53.672;10.014;2022-08-25T07:47:33;19.20;99.90
29363;DHT22;16349;53.672;10.014;2022-08-25T07:50:02;19.20;99.90
29363;DHT22;16349;53.672;10.014;2022-08-25T07:52:29;19.20;99.90
29363;DHT22;16349;53.672;10.014;2022-08-25T07:54:56;19.30;99.90
29363;DHT22;16349;53.672;10.014;2022-08-25T07:57:23;19.30;99.90
29363;DHT22;16349;53.672;10.014;2022-08-25T07:59:51;19.40;99.90
29363;DHT22;16349;53.672;10.014;2022-08-25T08:02:17;19.40;99.90
29363;DHT22;16349;53.672;10.014;2022-08-25T08:04:45;19.40;99.90
29363;DHT22;16349;53.672;10.014;2022-08-25T08:07:15;19.30;99.90
29363;DHT22;16349;53.672;10.014;2022-08-25T08:09:42;19.40;99.90
29363;DHT22;16349;53.672;10.014;2022-08-25T08:12:09;19.40;99.90
29363;DHT22;16349;53.672;10.014;2022-08-25T08:14:36;19.40;99.90
29363;DHT22;16349;53.672;10.014;2022-08-25T08:17:05;19.40;99.90
29363;DHT22;16349;53.672;10.014;2022-08-25T08:19:32;19.50;99.90
29363;DHT22;16349;53.672;10.014;2022-08-25T08:21:59;19.60;99.90
29363;DHT22;16349;53.672;10.014;2022-08-25T08:24:29;19.60;99.90
29363;DHT22;16349;53.672;10.014;2022-08-25T08:26:57;19.60;99.90
29363;DHT22;16349;53.672;10.014;2022-08-25T08:29:23;19.70;99.90
29363;DHT22;16349;53.672;10.014;2022-08-25T08:31:51;19.70;99.90
29363;DHT22;16349;53.672;10.014;2022-08-25T08:34:18;19.60;99.90
29363;DHT22;16349;53.672;10.014;2022-08-25T08:36:44;19.60;99.90
29363;DHT22;16349;53.672;10.014;2022-08-25T08:39:11;19.60;99.90
29363;DHT22;16349;53.672;10.014;2022-08-25T08:41:56;19.60;99.90
29363;DHT22;16349;53.672;10.014;2022-08-25T08:45:03;19.70;99.90
29363;DHT22;16349;53.672;10.014;2022-08-25T08:47:42;19.70;99.90
29363;DHT22;16349;53.672;10.014;2022-08-25T08:50:22;19.80;99.90
29363;DHT22;16349;53.672;10.014;2022-08-25T08:52:58;19.80;99.90
29363;DHT22;16349;53.672;10.014;2022-08-25T08:55:30;19.90;99.90
29363;DHT22;16349;53.672;10.014;2022-08-25T08:58:01;19.90;99.90
29363;DHT22;16349;53.672;10.014;2022-08-25T09:00:30;19.90;99.90
29363;DHT22;16349;53.672;10.014;2022-08-25T09:03:04;20.00;99.90
29363;DHT22;16349;53.672;10.014;2022-08-25T09:05:35;20.10;99.90
29363;DHT22;16349;53.672;10.014;2022-08-25T09:08:06;20.10;99.90
29363;DHT22;16349;53.672;10.014;2022-08-25T09:10:44;20.20;99.90
29363;DHT22;16349;53.672;10.014;2022-08-25T09:13:26;20.30;99.90
29363;DHT22;16349;53.672;10.014;2022-08-25T09:16:02;20.40;99.90
29363;DHT22;16349;53.672;10.014;2022-08-25T09:18:52;20.50;99.90
29363;DHT22;16349;53.672;10.014;2022-08-25T09:21:28;20.70;99.90
29363;DHT22;16349;53.672;10.014;2022-08-25T09:24:12;20.70;99.90
29363;DHT22;16349;53.672;10.014;2022-08-25T09:26:50;20.80;99.90
29363;DHT22;16349;53.672;10.014;2022-08-25T09:29:22;21.00;99.90
29363;DHT22;16349;53.672;10.014;2022-08-25T09:31:50;21.10;99.90
29363;DHT22;16349;53.672;10.014;2022-08-25T09:34:21;21.20;99.90
29363;DHT22;16349;53.672;10.014;2022-08-25T09:36:48;21.40;99.90
29363;DHT22;16349;53.672;10.014;2022-08-25T09:39:17;21.50;99.90
29363;DHT22;16349;53.672;10.014;2022-08-25T09:41:49;21.60;99.90
29363;DHT22;16349;53.672;10.014;2022-08-25T09:44:23;21.80;99.90
29363;DHT22;16349;53.672;10.014;2022-08-25T09:46:55;22.00;99.90
29363;DHT22;16349;53.672;10.014;2022-08-25T09:49:31;22.10;99.90
29363;DHT22;16349;53.672;10.014;2022-08-25T09:52:19;22.20;99.90
29363;DHT22;16349;53.672;10.014;2022-08-25T09:54:48;22.30;99.90
29363;DHT22;16349;53.672;10.014;2022-08-25T09:57:28;22.40;99.90
29363;DHT22;16349;53.672;10.014;2022-08-25T10:00:09;22.50;99.90
29363;DHT22;16349;53.672;10.014;2022-08-25T10:02:37;22.60;99.90
29363;DHT22;16349;53.672;10.014;2022-08-25T10:05:18;22.70;99.90
29363;DHT22;16349;53.672;10.014;2022-08-25T10:07:50;22.70;99.90
29363;DHT22;16349;53.672;10.014;2022-08-25T10:10:26;22.80;99.90
29363;DHT22;16349;53.672;10.014;2022-08-25T10:12:53;22.90;99.90
29363;DHT22;16349;53.672;10.014;2022-08-25T10:15:27;23.00;99.90
29363;DHT22;16349;53.672;10.014;2022-08-25T10:17:55;23.30;99.90
29363;DHT22;16349;53.672;10.014;2022-08-25T10:20:26;23.50;99.90
29363;DHT22;16349;53.672;10.014;2022-08-25T10:23:08;23.60;99.90
29363;DHT22;16349;53.672;10.014;2022-08-25T10:25:40;23.70;99.90
29363;DHT22;16349;53.672;10.014;2022-08-25T10:28:14;23.80;99.90
29363;DHT22;16349;53.672;10.014;2022-08-25T10:30:54;24.00;99.90
29363;DHT22;16349;53.672;10.014;2022-08-25T10:33:29;24.20;99.90
29363;DHT22;16349;53.672;10.014;2022-08-25T10:36:03;24.50;99.90
29363;DHT22;16349;53.672;10.014;2022-08-25T10:38:41;24.80;99.90
29363;DHT22;16349;53.672;10.014;2022-08-25T10:41:32;24.90;99.90
29363;DHT22;16349;53.672;10.014;2022-08-25T10:44:11;25.00;99.90
29363;DHT22;16349;53.672;10.014;2022-08-25T10:47:01;25.00;99.90
29363;DHT22;16349;53.672;10.014;2022-08-25T10:49:38;25.00;99.90
29363;DHT22;16349;53.672;10.014;2022-08-25T10:52:14;25.20;99.90
29363;DHT22;16349;53.672;10.014;2022-08-25T10:54:47;25.30;99.90
29363;DHT22;16349;53.672;10.014;2022-08-25T10:57:20;25.20;99.90
29363;DHT22;16349;53.672;10.014;2022-08-25T10:59:56;25.00;99.90
29363;DHT22;16349;53.672;10.014;2022-08-25T11:02:50;24.90;99.90
29363;DHT22;16349;53.672;10.014;2022-08-25T11:05:26;24.80;99.90
29363;DHT22;16349;53.672;10.014;2022-08-25T11:07:58;24.90;99.90
29363;DHT22;16349;53.672;10.014;2022-08-25T11:10:36;25.00;99.90
29363;DHT22;16349;53.672;10.014;2022-08-25T11:13:08;25.10;99.90
29363;DHT22;16349;53.672;10.014;2022-08-25T11:15:49;25.20;99.90
29363;DHT22;16349;53.672;10.014;2022-08-25T11:18:19;25.30;99.90
29363;DHT22;16349;53.672;10.014;2022-08-25T11:20:55;25.40;99.90
29363;DHT22;16349;53.672;10.014;2022-08-25T11:23:30;25.50;99.90
29363;DHT22;16349;53.672;10.014;2022-08-25T11:26:00;25.50;99.90
29363;DHT22;16349;53.672;10.014;2022-08-25T11:28:34;25.40;99.90
29363;DHT22;16349;53.672;10.014;2022-08-25T11:31:03;25.40;99.90
29363;DHT22;16349;53.672;10.014;2022-08-25T11:33:31;25.40;99.90
29363;DHT22;16349;53.672;10.014;2022-08-25T11:36:02;25.60;99.90
29363;DHT22;16349;53.672;10.014;2022-08-25T11:38:43;25.70;99.90
29363;DHT22;16349;53.672;10.014;2022-08-25T11:41:23;26.10;99.90
29363;DHT22;16349;53.672;10.014;2022-08-25T11:44:05;26.30;99.90
29363;DHT22;16349;53.672;10.014;2022-08-25T11:46:46;26.40;99.90
29363;DHT22;16349;53.672;10.014;2022-08-25T11:49:30;26.40;99.90
29363;DHT22;16349;53.672;10.014;2022-08-25T11:51:59;26.40;99.90
29363;DHT22;16349;53.672;10.014;2022-08-25T11:54:28;26.50;99.90
29363;DHT22;16349;53.672;10.014;2022-08-25T11:56:59;26.60;99.90
29363;DHT22;16349;53.672;10.014;2022-08-25T12:00:04;26.60;99.90
29363;DHT22;16349;53.672;10.014;2022-08-25T12:02:35;26.60;99.80
29363;DHT22;16349;53.672;10.014;2022-08-25T12:05:06;26.60;99.90
29363;DHT22;16349;53.672;10.014;2022-08-25T12:07:56;26.50;99.90
29363;DHT22;16349;53.672;10.014;2022-08-25T12:10:56;26.40;99.90
29363;DHT22;16349;53.672;10.014;2022-08-25T12:13:40;26.30;99.50
29363;DHT22;16349;53.672;10.014;2022-08-25T12:16:39;26.30;99.80
29363;DHT22;16349;53.672;10.014;2022-08-25T12:19:25;26.50;99.70
29363;DHT22;16349;53.672;10.014;2022-08-25T12:21:55;26.60;99.00
29363;DHT22;16349;53.672;10.014;2022-08-25T12:24:45;26.70;99.20
29363;DHT22;16349;53.672;10.014;2022-08-25T12:27:21;27.00;98.80
29363;DHT22;16349;53.672;10.014;2022-08-25T12:29:53;27.20;98.20
29363;DHT22;16349;53.672;10.014;2022-08-25T12:32:44;27.30;97.80
29363;DHT22;16349;53.672;10.014;2022-08-25T12:35:27;27.20;97.30
29363;DHT22;16349;53.672;10.014;2022-08-25T12:37:58;27.30;97.70
29363;DHT22;16349;53.672;10.014;2022-08-25T12:40:31;27.50;97.20
29363;DHT22;16349;53.672;10.014;2022-08-25T12:43:05;27.60;96.40
29363;DHT22;16349;53.672;10.014;2022-08-25T12:45:37;27.70;95.40
29363;DHT22;16349;53.672;10.014;2022-08-25T12:51:23;27.70;94.80
29363;DHT22;16349;53.672;10.014;2022-08-25T12:53:53;27.80;94.70
29363;DHT22;16349;53.672;10.014;2022-08-25T12:56:26;27.80;94.60
29363;DHT22;16349;53.672;10.014;2022-08-25T12:59:04;27.70;94.20
29363;DHT22;16349;53.672;10.014;2022-08-25T13:01:56;27.70;94.30
29363;DHT22;16349;53.672;10.014;2022-08-25T13:07:29;27.70;94.00
29363;DHT22;16349;53.672;10.014;2022-08-25T13:10:15;28.00;93.80
29363;DHT22;16349;53.672;10.014;2022-08-25T13:12:48;28.20;93.10
29363;DHT22;16349;53.672;10.014;2022-08-25T13:15:27;28.50;92.70
29363;DHT22;16349;53.672;10.014;2022-08-25T13:18:21;28.90;92.40
29363;DHT22;16349;53.672;10.014;2022-08-25T13:20:50;29.50;91.30
29363;DHT22;16349;53.672;10.014;2022-08-25T13:23:25;29.40;90.40
29363;DHT22;16349;53.672;10.014;2022-08-25T13:25:53;29.40;90.30
29363;DHT22;16349;53.672;10.014;2022-08-25T13:28:27;29.70;90.10
29363;DHT22;16349;53.672;10.014;2022-08-25T13:30:58;29.90;87.30
29363;DHT22;16349;53.672;10.014;2022-08-25T13:33:25;30.00;87.50
29363;DHT22;16349;53.672;10.014;2022-08-25T13:35:55;30.20;86.40
29363;DHT22;16349;53.672;10.014;2022-08-25T13:38:36;30.80;85.00
29363;DHT22;16349;53.672;10.014;2022-08-25T13:41:05;31.20;82.00
29363;DHT22;16349;53.672;10.014;2022-08-25T13:43:33;31.40;79.70
29363;DHT22;16349;53.672;10.014;2022-08-25T13:46:00;31.40;77.60
29363;DHT22;16349;53.672;10.014;2022-08-25T13:48:34;31.40;77.00
29363;DHT22;16349;53.672;10.014;2022-08-25T13:51:17;31.80;76.10
29363;DHT22;16349;53.672;10.014;2022-08-25T13:53:52;32.10;75.20
29363;DHT22;16349;53.672;10.014;2022-08-25T13:56:25;32.00;74.70
29363;DHT22;16349;53.672;10.014;2022-08-25T13:58:54;32.10;73.90
29363;DHT22;16349;53.672;10.014;2022-08-25T14:01:25;32.30;72.60
29363;DHT22;16349;53.672;10.014;2022-08-25T14:03:54;32.30;72.50
29363;DHT22;16349;53.672;10.014;2022-08-25T14:06:22;31.80;72.20
29363;DHT22;16349;53.672;10.014;2022-08-25T14:09:06;31.90;71.80
29363;DHT22;16349;53.672;10.014;2022-08-25T14:11:41;32.00;70.50
29363;DHT22;16349;53.672;10.014;2022-08-25T14:14:10;31.50;70.40
29363;DHT22;16349;53.672;10.014;2022-08-25T14:16:46;31.30;72.20
29363;DHT22;16349;53.672;10.014;2022-08-25T14:19:15;31.60;69.90
29363;DHT22;16349;53.672;10.014;2022-08-25T14:21:42;31.40;71.70
29363;DHT22;16349;53.672;10.014;2022-08-25T14:24:09;31.80;70.20
29363;DHT22;16349;53.672;10.014;2022-08-25T14:26:41;32.10;69.60
29363;DHT22;16349;53.672;10.014;2022-08-25T14:29:10;32.60;67.70
29363;DHT22;16349;53.672;10.014;2022-08-25T14:31:40;33.00;66.10
29363;DHT22;16349;53.672;10.014;2022-08-25T14:34:12;33.00;65.50
29363;DHT22;16349;53.672;10.014;2022-08-25T14:36:39;32.80;65.70
29363;DHT22;16349;53.672;10.014;2022-08-25T14:39:07;33.00;65.20
29363;DHT22;16349;53.672;10.014;2022-08-25T14:41:37;33.10;64.40
29363;DHT22;16349;53.672;10.014;2022-08-25T14:44:09;32.90;64.10
29363;DHT22;16349;53.672;10.014;2022-08-25T14:46:39;32.30;64.30
29363;DHT22;16349;53.672;10.014;2022-08-25T14:49:09;31.90;64.80
29363;DHT22;16349;53.672;10.014;2022-08-25T14:51:39;31.80;65.50
29363;DHT22;16349;53.672;10.014;2022-08-25T14:54:09;31.70;65.80
29363;DHT22;16349;53.672;10.014;2022-08-25T14:56:37;31.80;65.40
29363;DHT22;16349;53.672;10.014;2022-08-25T14:59:06;32.40;64.40
29363;DHT22;16349;53.672;10.014;2022-08-25T15:01:32;32.90;62.30
29363;DHT22;16349;53.672;10.014;2022-08-25T15:04:03;33.00;61.50
29363;DHT22;16349;53.672;10.014;2022-08-25T15:06:33;33.10;60.80
29363;DHT22;16349;53.672;10.014;2022-08-25T15:09:00;32.50;61.30
29363;DHT22;16349;53.672;10.014;2022-08-25T15:11:33;32.30;62.30
29363;DHT22;16349;53.672;10.014;2022-08-25T15:14:00;32.10;62.10
29363;DHT22;16349;53.672;10.014;2022-08-25T15:16:32;31.60;63.10
29363;DHT22;16349;53.672;10.014;2022-08-25T15:19:00;31.00;64.00
29363;DHT22;16349;53.672;10.014;2022-08-25T15:21:29;30.70;65.30
29363;DHT22;16349;53.672;10.014;2022-08-25T15:23:56;30.50;65.80
29363;DHT22;16349;53.672;10.014;2022-08-25T15:26:25;30.60;66.20
29363;DHT22;16349;53.672;10.014;2022-08-25T15:28:51;30.90;65.60
29363;DHT22;16349;53.672;10.014;2022-08-25T15:31:19;30.80;65.70
29363;DHT22;16349;53.672;10.014;2022-08-25T15:33:48;30.30;67.00
29363;DHT22;16349;53.672;10.014;2022-08-25T15:36:16;30.00;68.30
29363;DHT22;16349;53.672;10.014;2022-08-25T15:38:45;29.90;68.90
29363;DHT22;16349;53.672;10.014;2022-08-25T15:41:11;29.80;69.20
29363;DHT22;16349;53.672;10.014;2022-08-25T15:43:38;29.90;69.60
29363;DHT22;16349;53.672;10.014;2022-08-25T15:46:07;29.60;70.10